createdAt,value
2022-09-15T00:02:13.677Z,100737.91
2022-09-15T00:04:40.396Z,100738.97
2022-09-15T00:07:07.210Z,100736.56
2022-09-15T00:09:33.785Z,100734.16
2022-09-15T00:12:00.904Z,100734.50
2022-09-15T00:14:27.522Z,100732.94
2022-09-15T00:16:54.359Z,100734.22
2022-09-15T00:19:20.833Z,100725.63
2022-09-15T00:21:47.509Z,100733.59
2022-09-15T00:24:14.213Z,100732.03
2022-09-15T00:26:40.766Z,100730.28
2022-09-15T00:29:07.235Z,100737.41
2022-09-15T00:31:33.915Z,100732.38
2022-09-15T00:34:04.930Z,100740.25
2022-09-15T00:36:32.228Z,100734.91
2022-09-15T00:38:59.125Z,100734.91
2022-09-15T00:41:26.017Z,100735.72
2022-09-15T00:44:04.135Z,100739.31
2022-09-15T00:46:32.485Z,100734.50
2022-09-15T00:49:07.466Z,100733.06
2022-09-15T00:51:40.272Z,100741.66
2022-09-15T00:54:17.558Z,100746.91
2022-09-15T00:56:45.434Z,100745.44
2022-09-15T00:59:22.710Z,100745.44
2022-09-15T01:01:55.277Z,100742.09
2022-09-15T01:04:21.894Z,100741.56
2022-09-15T01:06:54.008Z,100743.59
2022-09-15T01:09:31.664Z,100740.09
2022-09-15T01:11:58.607Z,100741.91
2022-09-15T01:17:27.287Z,100742.72
2022-09-15T01:20:21.447Z,100744.66
2022-09-15T01:23:06.674Z,100747.38
2022-09-15T01:25:55.175Z,100749.03
2022-09-15T01:28:43.956Z,100753.34
2022-09-15T01:31:33.819Z,100752.72
2022-09-15T01:34:14.875Z,100750.19
2022-09-15T01:36:52.636Z,100749.59
2022-09-15T01:39:28.396Z,100753.38
2022-09-15T01:41:59.015Z,100750.94
2022-09-15T01:44:29.849Z,100758.22
2022-09-15T01:47:05.438Z,100748.75
2022-09-15T01:49:42.999Z,100753.81
2022-09-15T01:52:09.715Z,100758.31
2022-09-15T01:54:48.945Z,100755.69
2022-09-15T01:57:22.665Z,100762.09
2022-09-15T01:59:50.721Z,100754.66
2022-09-15T02:02:22.788Z,100757.59
2022-09-15T02:04:57.837Z,100751.63
2022-09-15T02:07:41.344Z,100750.81
2022-09-15T02:10:22.030Z,100754.78
2022-09-15T02:13:00.010Z,100751.41
2022-09-15T02:15:55.736Z,100754.03
2022-09-15T02:18:39.214Z,100761.16
2022-09-15T02:21:21.108Z,100761.91
2022-09-15T02:23:56.229Z,100755.91
2022-09-15T02:26:27.827Z,100756.97
2022-09-15T02:28:56.803Z,100751.75
2022-09-15T02:31:25.577Z,100747.34
2022-09-15T02:33:59.392Z,100750.69
2022-09-15T02:36:29.100Z,100749.75
2022-09-15T02:39:02.990Z,100753.84
2022-09-15T02:41:29.892Z,100759.91
2022-09-15T02:43:56.887Z,100762.53
2022-09-15T02:46:24.161Z,100761.69
2022-09-15T02:48:50.809Z,100766.94
2022-09-15T02:51:18.797Z,100765.16
2022-09-15T02:53:46.816Z,100762.63
2022-09-15T02:56:17.752Z,100760.00
2022-09-15T02:58:47.517Z,100755.72
2022-09-15T03:01:15.749Z,100759.50
2022-09-15T03:03:44.392Z,100757.81
2022-09-15T03:06:18.348Z,100767.25
2022-09-15T03:08:56.346Z,100763.59
2022-09-15T03:11:26.866Z,100761.91
2022-09-15T03:13:55.625Z,100758.44
2022-09-15T03:16:24.571Z,100757.53
2022-09-15T03:18:51.322Z,100763.59
2022-09-15T03:21:18.967Z,100765.66
2022-09-15T03:23:45.963Z,100762.84
2022-09-15T03:26:13.026Z,100767.13
2022-09-15T03:28:40.293Z,100765.06
2022-09-15T03:31:08.855Z,100772.19
2022-09-15T03:33:35.803Z,100771.34
2022-09-15T03:36:03.596Z,100776.47
2022-09-15T03:38:30.435Z,100777.28
2022-09-15T03:41:05.635Z,100779.72
2022-09-15T03:43:33.439Z,100784.84
2022-09-15T03:46:01.512Z,100776.16
2022-09-15T03:48:30.937Z,100768.28
2022-09-15T03:50:57.834Z,100766.63
2022-09-15T03:53:24.640Z,100765.66
2022-09-15T03:55:51.530Z,100778.88
2022-09-15T03:58:18.617Z,100793.75
2022-09-15T04:00:47.022Z,100785.59
2022-09-15T04:03:13.977Z,100789.88
2022-09-15T04:05:40.619Z,100787.16
2022-09-15T04:08:07.112Z,100787.16
2022-09-15T04:10:33.728Z,100775.00
2022-09-15T04:13:00.214Z,100769.75
2022-09-15T04:15:26.786Z,100769.66
2022-09-15T04:17:56.539Z,100775.13
2022-09-15T04:20:23.643Z,100784.63
2022-09-15T04:22:50.410Z,100781.28
2022-09-15T04:25:17.179Z,100783.91
2022-09-15T04:27:43.709Z,100787.47
2022-09-15T04:30:10.642Z,100783.91
2022-09-15T04:32:37.235Z,100777.84
2022-09-15T04:35:04.914Z,100780.22
2022-09-15T04:37:32.397Z,100780.22
2022-09-15T04:39:59.764Z,100778.56
2022-09-15T04:42:26.322Z,100778.56
2022-09-15T04:44:53.221Z,100774.06
2022-09-15T04:47:19.810Z,100775.00
2022-09-15T04:49:46.504Z,100778.47
2022-09-15T04:52:13.388Z,100775.94
2022-09-15T04:54:40.154Z,100778.66
2022-09-15T04:57:06.958Z,100776.16
2022-09-15T04:59:33.751Z,100776.03
2022-09-15T05:02:00.605Z,100775.13
2022-09-15T05:04:27.983Z,100774.16
2022-09-15T05:06:54.727Z,100775.00
2022-09-15T05:09:21.491Z,100776.59
2022-09-15T05:11:47.986Z,100785.28
2022-09-15T05:14:14.642Z,100785.47
2022-09-15T05:16:41.316Z,100777.59
2022-09-15T05:19:08.005Z,100782.03
2022-09-15T05:21:34.539Z,100779.50
2022-09-15T05:24:01.882Z,100787.34
2022-09-15T05:26:29.579Z,100786.75
2022-09-15T05:28:59.808Z,100789.38
2022-09-15T05:31:31.198Z,100792.91
2022-09-15T05:34:01.318Z,100792.09
2022-09-15T05:36:28.545Z,100793.75
2022-09-15T05:38:59.122Z,100788.41
2022-09-15T05:41:27.818Z,100790.09
2022-09-15T05:43:56.991Z,100791.84
2022-09-15T05:46:26.308Z,100787.34
2022-09-15T05:48:55.418Z,100789.13
2022-09-15T05:51:22.543Z,100789.03
2022-09-15T05:53:49.423Z,100786.63
2022-09-15T05:56:17.348Z,100786.53
2022-09-15T05:58:46.200Z,100786.34
2022-09-15T06:01:22.721Z,100793.13
2022-09-15T06:03:49.982Z,100790.50
2022-09-15T06:06:17.226Z,100792.31
2022-09-15T06:08:48.261Z,100784.44
2022-09-15T06:11:18.809Z,100787.66
2022-09-15T06:13:46.408Z,100788.41
2022-09-15T06:16:19.492Z,100795.19
2022-09-15T06:18:47.559Z,100802.22
2022-09-15T06:21:23.252Z,100806.53
2022-09-15T06:24:00.771Z,100808.44
2022-09-15T06:26:28.350Z,100804.03
2022-09-15T06:28:57.782Z,100810.31
2022-09-15T06:31:29.067Z,100811.97
2022-09-15T06:33:57.629Z,100811.78
2022-09-15T06:36:26.731Z,100816.69
2022-09-15T06:38:54.075Z,100816.28
2022-09-15T06:41:21.066Z,100818.16
2022-09-15T06:43:51.637Z,100821.25
2022-09-15T06:46:21.382Z,100826.38
2022-09-15T06:48:49.141Z,100823.66
2022-09-15T06:51:17.969Z,100832.34
2022-09-15T06:53:45.674Z,100838.53
2022-09-15T06:56:14.595Z,100835.38
2022-09-15T06:58:42.247Z,100843.16
2022-09-15T07:01:12.315Z,100845.88
2022-09-15T07:03:41.976Z,100845.50
2022-09-15T07:06:10.092Z,100855.47
2022-09-15T07:08:36.925Z,100854.00
2022-09-15T07:11:04.117Z,100855.59
2022-09-15T07:13:33.239Z,100858.78
2022-09-15T07:16:02.138Z,100872.31
2022-09-15T07:18:28.609Z,100875.25
2022-09-15T07:21:06.540Z,100879.75
2022-09-15T07:23:36.622Z,100884.06
2022-09-15T07:26:10.924Z,100879.47
2022-09-15T07:28:37.525Z,100884.69
2022-09-15T07:31:05.920Z,100883.75
2022-09-15T07:33:33.673Z,100888.78
2022-09-15T07:36:04.835Z,100886.91
2022-09-15T07:38:31.535Z,100888.66
2022-09-15T07:41:12.895Z,100887.50
2022-09-15T07:43:40.056Z,100875.22
2022-09-15T07:46:07.062Z,100885.28
2022-09-15T07:48:33.803Z,100888.63
2022-09-15T07:51:00.235Z,100894.75
2022-09-15T07:53:30.370Z,100896.50
2022-09-15T07:55:56.892Z,100893.56
2022-09-15T07:58:23.704Z,100886.09
2022-09-15T08:00:50.168Z,100887.47
2022-09-15T08:03:16.783Z,100891.69
2022-09-15T08:05:45.550Z,100897.75
2022-09-15T08:08:12.283Z,100900.97
2022-09-15T08:10:41.093Z,100906.84
2022-09-15T08:13:07.636Z,100902.97
2022-09-15T08:15:36.849Z,100900.00
2022-09-15T08:18:03.728Z,100911.34
2022-09-15T08:20:31.535Z,100910.59
2022-09-15T08:22:58.159Z,100911.22
2022-09-15T08:25:24.779Z,100913.97
2022-09-15T08:27:53.687Z,100918.28
2022-09-15T08:30:21.207Z,100924.25
2022-09-15T08:32:47.928Z,100933.59
2022-09-15T08:35:16.005Z,100930.63
2022-09-15T08:37:42.556Z,100935.75
2022-09-15T08:40:22.742Z,100940.78
2022-09-15T08:42:55.442Z,100935.09
2022-09-15T08:45:27.842Z,100942.75
2022-09-15T08:48:01.400Z,100948.63
2022-09-15T08:50:50.113Z,100955.53
2022-09-15T08:53:28.769Z,100948.72
2022-09-15T08:55:59.057Z,100942.63
2022-09-15T08:58:29.651Z,100950.63
2022-09-15T09:01:02.278Z,100944.63
2022-09-15T09:03:56.789Z,100953.25
2022-09-15T09:06:46.820Z,100956.50
2022-09-15T09:09:51.073Z,100948.72
2022-09-15T09:12:43.555Z,100950.28
2022-09-15T09:15:25.716Z,100953.78
2022-09-15T09:18:14.466Z,100949.56
2022-09-15T09:21:04.321Z,100955.66
2022-09-15T09:23:33.821Z,100956.50
2022-09-15T09:26:02.240Z,100952.19
2022-09-15T09:28:30.651Z,100958.50
2022-09-15T09:31:15.528Z,100967.66
2022-09-15T09:33:47.925Z,100980.31
2022-09-15T09:36:15.164Z,100973.03
2022-09-15T09:38:45.174Z,100980.25
2022-09-15T09:41:17.023Z,100977.81
2022-09-15T09:43:47.518Z,100979.69
2022-09-15T09:46:17.753Z,100977.72
2022-09-15T09:48:50.105Z,100974.03
2022-09-15T09:51:31.363Z,100980.75
2022-09-15T09:54:04.918Z,100978.47
2022-09-15T09:56:31.366Z,100974.44
2022-09-15T09:58:57.932Z,100981.28
2022-09-15T10:01:26.011Z,100973.25
2022-09-15T10:04:13.303Z,100973.22
2022-09-15T10:06:41.083Z,100977.31
2022-09-15T10:09:16.999Z,100967.84
2022-09-15T10:11:56.117Z,100967.28
2022-09-15T10:14:25.715Z,100960.00
2022-09-15T10:17:00.816Z,100967.50
2022-09-15T10:19:30.587Z,100961.25
2022-09-15T10:21:59.440Z,100959.06
2022-09-15T10:24:41.694Z,100961.78
2022-09-15T10:27:18.052Z,100954.75
2022-09-15T10:29:44.889Z,100951.69
2022-09-15T10:32:25.865Z,100956.97
2022-09-15T10:35:11.531Z,100955.03
2022-09-15T10:37:58.314Z,100945.53
2022-09-15T10:40:39.282Z,100947.00
2022-09-15T10:43:11.962Z,100945.06
2022-09-15T10:45:40.382Z,100941.50
2022-09-15T10:48:25.354Z,100938.78
2022-09-15T10:51:19.384Z,100929.81
2022-09-15T10:54:08.334Z,100936.81
2022-09-15T10:56:41.711Z,100929.28
2022-09-15T10:59:29.709Z,100938.00
2022-09-15T11:02:15.311Z,100927.81
2022-09-15T11:04:49.591Z,100932.84
2022-09-15T11:07:54.093Z,100935.09
2022-09-15T11:10:28.911Z,100931.38
2022-09-15T11:13:00.988Z,100931.50
2022-09-15T11:15:54.848Z,100935.81
2022-09-15T11:18:29.136Z,100937.50
2022-09-15T11:21:07.388Z,100933.06
2022-09-15T11:23:39.875Z,100930.44
2022-09-15T11:26:35.078Z,100930.84
2022-09-15T11:29:07.389Z,100925.72
2022-09-15T11:31:39.648Z,100931.59
2022-09-15T11:34:40.180Z,100935.91
2022-09-15T11:37:17.801Z,100933.53
2022-09-15T11:40:00.709Z,100930.81
2022-09-15T11:42:35.152Z,100930.56
2022-09-15T11:45:03.364Z,100930.09
2022-09-15T11:47:42.616Z,100931.03
2022-09-15T11:50:20.626Z,100927.06
2022-09-15T11:53:28.030Z,100931.53
2022-09-15T11:56:15.973Z,100932.91
2022-09-15T11:58:55.173Z,100919.34
2022-09-15T12:01:25.255Z,100921.16
2022-09-15T12:03:59.454Z,100921.97
2022-09-15T12:06:42.004Z,100917.34
2022-09-15T12:09:14.336Z,100924.00
2022-09-15T12:11:46.764Z,100923.22
2022-09-15T12:14:28.365Z,100913.94
2022-09-15T12:16:55.965Z,100916.94
2022-09-15T12:19:47.579Z,100916.75
2022-09-15T12:22:27.028Z,100928.88
2022-09-15T12:25:01.607Z,100931.09
2022-09-15T12:27:28.868Z,100935.38
2022-09-15T12:29:58.284Z,100941.50
2022-09-15T12:32:29.031Z,100942.34
2022-09-15T12:35:17.607Z,100939.81
2022-09-15T12:37:47.231Z,100954.25
2022-09-15T12:40:39.993Z,100951.75
2022-09-15T12:43:13.281Z,100945.16
2022-09-15T12:45:43.167Z,100951.41
2022-09-15T12:48:19.211Z,100953.78
2022-09-15T12:50:54.955Z,100968.50
2022-09-15T12:53:47.845Z,100973.50
2022-09-15T12:56:29.346Z,100966.22
2022-09-15T12:58:56.321Z,100973.84
2022-09-15T13:01:22.903Z,100967.75
2022-09-15T13:04:00.673Z,100966.53
2022-09-15T13:06:29.588Z,100971.06
2022-09-15T13:09:02.290Z,100956.72
2022-09-15T13:11:36.844Z,100965.50
2022-09-15T13:14:03.466Z,100963.81
2022-09-15T13:16:47.066Z,100960.81
2022-09-15T13:19:21.981Z,100969.22
2022-09-15T13:21:58.576Z,100963.47
2022-09-15T13:24:30.917Z,100961.19
2022-09-15T13:26:57.876Z,100960.84
2022-09-15T13:29:28.890Z,100959.63
2022-09-15T13:32:13.600Z,100953.28
2022-09-15T13:35:09.088Z,100959.31
2022-09-15T13:38:19.990Z,100950.78
2022-09-15T13:41:10.174Z,100957.47
2022-09-15T13:44:14.225Z,100960.06
2022-09-15T13:46:46.582Z,100942.56
2022-09-15T13:49:35.896Z,100953.81
2022-09-15T13:52:23.491Z,100955.81
2022-09-15T13:55:14.759Z,100951.84
2022-09-15T14:00:35.184Z,100957.09
2022-09-15T14:03:20.462Z,100958.91
2022-09-15T14:05:47.304Z,100968.13
2022-09-15T14:08:22.864Z,100974.94
2022-09-15T14:10:58.505Z,100983.03
2022-09-15T14:13:28.464Z,100984.41
2022-09-15T14:16:00.918Z,100977.84
2022-09-15T14:18:28.727Z,100976.75
2022-09-15T14:21:00.459Z,100977.97
2022-09-15T14:23:26.909Z,100976.91
2022-09-15T14:25:53.484Z,100978.94
2022-09-15T14:28:31.302Z,100985.19
2022-09-15T14:31:00.105Z,100981.53
2022-09-15T14:33:38.115Z,100988.59
2022-09-15T14:36:34.710Z,100979.13
2022-09-15T14:39:28.204Z,100978.88
2022-09-15T14:41:54.772Z,100976.03
2022-09-15T14:47:19.805Z,100981.53
2022-09-15T14:49:46.550Z,100982.59
2022-09-15T14:52:24.236Z,100982.50
2022-09-15T14:54:56.305Z,100977.56
2022-09-15T14:57:30.646Z,100974.25
2022-09-15T15:00:12.307Z,100985.09
2022-09-15T15:02:47.155Z,100966.94
2022-09-15T15:05:27.948Z,100971.47
2022-09-15T15:07:55.597Z,100973.38
2022-09-15T15:10:26.213Z,100979.25
2022-09-15T15:12:57.602Z,100967.03
2022-09-15T15:15:24.970Z,100978.63
2022-09-15T15:17:54.744Z,100974.22
2022-09-15T15:20:33.056Z,100973.50
2022-09-15T15:23:15.594Z,100961.53
2022-09-15T15:25:42.889Z,100975.28
2022-09-15T15:28:28.911Z,100981.38
2022-09-15T15:31:19.880Z,100979.81
2022-09-15T15:34:19.449Z,100986.84
2022-09-15T15:36:46.116Z,100983.28
2022-09-15T15:39:26.981Z,100993.06
2022-09-15T15:42:02.610Z,100995.31
2022-09-15T15:44:31.285Z,100992.28
2022-09-15T15:47:23.487Z,101011.19
2022-09-15T15:50:12.265Z,101010.97
2022-09-15T15:52:39.340Z,101005.88
2022-09-15T15:55:06.399Z,101003.59
2022-09-15T15:57:38.176Z,101010.13
2022-09-15T16:00:21.042Z,101015.38
2022-09-15T16:02:48.533Z,101021.50
2022-09-15T16:05:15.439Z,101020.25
2022-09-15T16:07:44.127Z,101028.38
2022-09-15T16:10:16.935Z,101019.13
2022-09-15T16:12:43.603Z,101021.38
2022-09-15T16:15:12.374Z,101018.66
2022-09-15T16:17:43.070Z,101018.25
2022-09-15T16:20:13.255Z,101014.59
2022-09-15T16:22:40.613Z,101011.00
2022-09-15T16:25:39.524Z,101012.03
2022-09-15T16:28:06.371Z,101010.66
2022-09-15T16:30:33.375Z,101009.50
2022-09-15T16:33:00.385Z,101016.41
2022-09-15T16:35:40.165Z,101024.88
2022-09-15T16:38:07.897Z,101023.22
2022-09-15T16:40:36.178Z,101024.38
2022-09-15T16:43:03.721Z,101026.16
2022-09-15T16:45:40.599Z,101020.69
2022-09-15T16:48:08.202Z,101023.75
2022-09-15T16:50:35.564Z,101028.06
2022-09-15T16:53:02.728Z,101022.28
2022-09-15T16:55:36.570Z,101028.59
2022-09-15T16:58:04.799Z,101031.31
2022-09-15T17:00:34.708Z,101025.47
2022-09-15T17:03:01.421Z,101029.84
2022-09-15T17:05:39.875Z,101021.13
2022-09-15T17:08:08.986Z,101022.84
2022-09-15T17:10:36.583Z,101020.50
2022-09-15T17:13:04.190Z,101022.63
2022-09-15T17:15:35.651Z,101017.72
2022-09-15T17:18:02.744Z,101016.00
2022-09-15T17:20:29.389Z,101021.25
2022-09-15T17:22:57.739Z,101019.59
2022-09-15T17:25:35.703Z,101020.44
2022-09-15T17:28:04.144Z,101017.72
2022-09-15T17:30:32.306Z,101014.53
2022-09-15T17:33:07.477Z,101018.13
2022-09-15T17:35:39.416Z,101020.84
2022-09-15T17:38:07.590Z,101020.66
2022-09-15T17:40:35.697Z,101024.31
2022-09-15T17:43:02.831Z,101022.88
2022-09-15T17:45:34.878Z,101028.94
2022-09-15T17:48:06.393Z,101025.16
2022-09-15T17:50:34.918Z,101028.19
2022-09-15T17:53:01.880Z,101034.69
2022-09-15T17:55:31.533Z,101033.75
2022-09-15T17:58:03.241Z,101040.34
2022-09-15T18:00:33.268Z,101035.19
2022-09-15T18:03:20.205Z,101031.56
2022-09-15T18:05:46.769Z,101032.69
2022-09-15T18:08:13.725Z,101028.59
2022-09-15T18:10:40.133Z,101034.50
2022-09-15T18:13:07.186Z,101043.19
2022-09-15T18:15:35.095Z,101040.44
2022-09-15T18:18:04.320Z,101051.06
2022-09-15T18:20:33.706Z,101056.50
2022-09-15T18:23:00.817Z,101063.63
2022-09-15T18:25:33.566Z,101070.75
2022-09-15T18:28:02.091Z,101070.72
2022-09-15T18:30:34.636Z,101082.38
2022-09-15T18:33:01.163Z,101084.06
2022-09-15T18:35:27.761Z,101080.78
2022-09-15T18:37:59.361Z,101080.88
2022-09-15T18:40:27.699Z,101093.47
2022-09-15T18:42:54.732Z,101095.34
2022-09-15T18:45:21.319Z,101097.44
2022-09-15T18:47:50.153Z,101098.56
2022-09-15T18:50:19.183Z,101095.59
2022-09-15T18:52:46.568Z,101086.47
2022-09-15T18:55:15.945Z,101085.91
2022-09-15T18:57:42.772Z,101076.16
2022-09-15T19:00:13.736Z,101078.63
2022-09-15T19:02:40.962Z,101069.88
2022-09-15T19:05:11.077Z,101078.44
2022-09-15T19:07:38.920Z,101095.84
2022-09-15T19:10:07.144Z,101096.16
2022-09-15T19:12:36.254Z,101103.66
2022-09-15T19:15:05.201Z,101086.34
2022-09-15T19:17:32.162Z,101088.84
2022-09-15T19:20:00.294Z,101095.69
2022-09-15T19:22:28.343Z,101095.69
2022-09-15T19:24:55.358Z,101087.72
2022-09-15T19:27:22.353Z,101081.38
2022-09-15T19:29:48.802Z,101087.66
2022-09-15T19:32:18.327Z,101083.31
2022-09-15T19:34:45.980Z,101089.44
2022-09-15T19:37:18.337Z,101097.06
2022-09-15T19:39:45.875Z,101099.59
2022-09-15T19:42:12.698Z,101099.59
2022-09-15T19:44:40.507Z,101102.41
2022-09-15T19:47:06.985Z,101098.13
2022-09-15T19:49:33.456Z,101103.28
2022-09-15T19:51:59.878Z,101108.50
2022-09-15T19:54:28.530Z,101110.56
2022-09-15T19:56:55.984Z,101119.66
2022-09-15T19:59:23.813Z,101115.44
2022-09-15T20:01:51.741Z,101117.56
2022-09-15T20:04:18.146Z,101117.78
2022-09-15T20:06:44.454Z,101109.34
2022-09-15T20:09:10.994Z,101106.28
2022-09-15T20:11:37.858Z,101103.94
2022-09-15T20:14:06.385Z,101105.81
2022-09-15T20:16:33.491Z,101104.97
2022-09-15T20:19:00.375Z,101097.03
2022-09-15T20:21:49.428Z,101096.94
2022-09-15T20:24:17.554Z,101113.59
2022-09-15T20:26:43.899Z,101117.97
2022-09-15T20:29:10.742Z,101109.28
2022-09-15T20:31:37.553Z,101117.97
2022-09-15T20:34:03.864Z,101116.28
2022-09-15T20:36:36.368Z,101120.13
2022-09-15T20:39:05.226Z,101114.03
2022-09-15T20:41:31.937Z,101117.69
2022-09-15T20:43:58.694Z,101115.25
2022-09-15T20:46:25.217Z,101111.78
2022-09-15T20:48:52.178Z,101106.41
2022-09-15T20:51:22.625Z,101110.59
2022-09-15T20:53:51.223Z,101104.53
2022-09-15T20:56:21.138Z,101108.44
2022-09-15T20:58:47.814Z,101109.28
2022-09-15T21:01:23.102Z,101112.91
2022-09-15T21:03:50.165Z,101117.22
2022-09-15T21:06:19.481Z,101109.47
2022-09-15T21:08:47.581Z,101108.91
2022-09-15T21:11:15.789Z,101112.53
2022-09-15T21:13:43.398Z,101115.72
2022-09-15T21:16:15.111Z,101110.69
2022-09-15T21:18:42.721Z,101111.59
2022-09-15T21:21:13.637Z,101105.63
2022-09-15T21:23:51.702Z,101109.81
2022-09-15T21:26:20.250Z,101110.78
2022-09-15T21:28:46.794Z,101116.00
2022-09-15T21:31:13.183Z,101117.94
2022-09-15T21:33:39.810Z,101121.50
2022-09-15T21:36:11.169Z,101124.97
2022-09-15T21:38:40.342Z,101126.81
2022-09-15T21:41:09.252Z,101126.00
2022-09-15T21:43:37.973Z,101121.59
2022-09-15T21:46:06.178Z,101114.78
2022-09-15T21:48:34.709Z,101121.78
2022-09-15T21:51:02.469Z,101119.19
2022-09-15T21:53:29.291Z,101117.69
2022-09-15T21:55:56.634Z,101118.94
2022-09-15T21:58:26.144Z,101118.31
2022-09-15T22:00:53.269Z,101116.59
2022-09-15T22:03:20.739Z,101120.34
2022-09-15T22:05:47.997Z,101124.91
2022-09-15T22:08:16.006Z,101131.91
2022-09-15T22:10:43.829Z,101130.22
2022-09-15T22:13:12.555Z,101121.63
2022-09-15T22:15:38.983Z,101125.16
2022-09-15T22:18:06.603Z,101119.28
2022-09-15T22:20:33.041Z,101121.16
2022-09-15T22:23:02.538Z,101116.72
2022-09-15T22:25:29.260Z,101108.94
2022-09-15T22:27:55.633Z,101107.19
2022-09-15T22:30:22.038Z,101101.09
2022-09-15T22:32:48.401Z,101099.34
2022-09-15T22:35:15.168Z,101096.75
2022-09-15T22:37:41.609Z,101088.97
2022-09-15T22:40:09.006Z,101093.38
2022-09-15T22:42:35.649Z,101094.38
2022-09-15T22:45:01.985Z,101098.72
2022-09-15T22:47:28.364Z,101095.56
2022-09-15T22:49:55.128Z,101100.84
2022-09-15T22:52:21.549Z,101103.41
2022-09-15T22:54:47.933Z,101099.09
2022-09-15T22:57:14.280Z,101103.56
2022-09-15T22:59:40.642Z,101101.81
2022-09-15T23:02:07.091Z,101101.81
2022-09-15T23:04:33.609Z,101101.88
2022-09-15T23:06:59.949Z,101097.56
2022-09-15T23:09:26.477Z,101098.59
2022-09-15T23:11:52.855Z,101094.38
2022-09-15T23:14:19.199Z,101114.19
2022-09-15T23:16:45.580Z,101109.88
2022-09-15T23:19:13.496Z,101112.75
2022-09-15T23:21:39.923Z,101120.53
2022-09-15T23:24:06.672Z,101111.66
2022-09-15T23:26:33.002Z,101106.69
2022-09-15T23:28:59.384Z,101101.47
2022-09-15T23:31:25.792Z,101102.00
2022-09-15T23:33:52.228Z,101103.53
2022-09-15T23:36:22.167Z,101099.13
2022-09-15T23:38:49.392Z,101110.50
2022-09-15T23:41:16.971Z,101103.59
2022-09-15T23:43:43.441Z,101109.66
2022-09-15T23:46:10.532Z,101110.41
2022-09-15T23:48:37.399Z,101103.31
2022-09-15T23:51:04.491Z,101111.94
2022-09-15T23:53:31.201Z,101107.53
2022-09-15T23:55:57.648Z,101109.31
2022-09-15T23:58:24.854Z,101114.63
